Time;durP1;ratioP1;P1;durP2;ratioP2;P2;SDS_P1;SDS_P2;PMS_P1;PMS_P2;Temp;Humidity;BMP_temperature;BMP_pressure;BME280_temperature;BME280_humidity;BME280_pressure;Samples;Min_cycle;Max_cycle;Signal;HPM_P1;HPM_P2
2021/10/10 00:00:16;;;;;;;6.35;3.72;;;;;;;;;;5066456;28;20053;-79
2021/10/10 00:02:42;;;;;;;4.72;3.38;;;;;;;;;;5071954;28;20064;-78
2021/10/10 00:05:09;;;;;;;4.85;3.60;;;;;;;;;;5068324;28;20060;-78
2021/10/10 00:07:35;;;;;;;5.50;3.80;;;;;;;;;;5060777;28;20098;-78
2021/10/10 00:10:02;;;;;;;5.18;3.80;;;;;;;;;;5069274;28;20048;-77
2021/10/10 00:12:28;;;;;;;6.70;3.47;;;;;;;;;;5073470;28;20079;-77
2021/10/10 00:14:54;;;;;;;4.63;3.60;;;;;;;;;;5069945;28;20471;-77
2021/10/10 00:17:21;;;;;;;5.30;3.10;;;;;;;;;;5068329;28;20052;-77
2021/10/10 00:19:47;;;;;;;5.63;3.33;;;;;;;;;;5066134;28;20056;-77
2021/10/10 00:22:14;;;;;;;4.68;3.35;;;;;;;;;;5065950;28;20048;-77
2021/10/10 00:24:40;;;;;;;4.78;3.25;;;;;;;;;;5065174;28;20792;-77
2021/10/10 00:27:06;;;;;;;5.50;3.70;;;;;;;;;;5077579;28;20480;-77
2021/10/10 00:29:33;;;;;;;5.28;3.58;;;;;;;;;;5055722;28;20200;-76
2021/10/10 00:32:01;;;;;;;5.50;3.35;;;;;;;;;;5071208;28;20045;-76
2021/10/10 00:34:28;;;;;;;5.88;3.45;;;;;;;;;;5067989;28;20040;-77
2021/10/10 00:36:54;;;;;;;4.90;3.45;;;;;;;;;;5070112;28;20072;-76
2021/10/10 00:39:20;;;;;;;5.78;3.47;;;;;;;;;;5061894;28;20044;-77
2021/10/10 00:41:48;;;;;;;4.80;3.28;;;;;;;;;;5067601;28;20069;-77
2021/10/10 00:44:14;;;;;;;4.13;3.13;;;;;;;;;;5068801;28;20064;-81
2021/10/10 00:46:41;;;;;;;7.28;3.42;;;;;;;;;;5067650;28;20151;-77
2021/10/10 00:49:07;;;;;;;4.90;3.47;;;;;;;;;;5062541;28;20064;-77
2021/10/10 00:51:35;;;;;;;4.68;3.05;;;;;;;;;;5069924;28;20060;-76
2021/10/10 00:54:03;;;;;;;5.30;3.28;;;;;;;;;;5065598;28;20060;-77
2021/10/10 00:56:30;;;;;;;4.68;3.30;;;;;;;;;;5068512;28;20500;-78
2021/10/10 00:58:58;;;;;;;4.78;3.35;;;;;;;;;;5062923;28;20056;-78
2021/10/10 01:01:24;;;;;;;6.97;3.70;;;;;;;;;;5059097;28;20124;-78
2021/10/10 01:03:51;;;;;;;5.85;3.38;;;;;;;;;;5068308;28;20059;-77
2021/10/10 01:06:17;;;;;;;4.38;3.22;;;;;;;;;;5056618;28;20060;-77
2021/10/10 01:08:44;;;;;;;6.60;3.60;;;;;;;;;;5065015;28;20064;-78
2021/10/10 01:11:11;;;;;;;4.75;2.90;;;;;;;;;;5071206;28;20526;-78
2021/10/10 01:13:38;;;;;;;4.07;3.03;;;;;;;;;;5066208;28;20048;-77
2021/10/10 01:16:04;;;;;;;5.35;3.53;;;;;;;;;;5067155;28;20134;-77
2021/10/10 01:18:31;;;;;;;5.75;3.30;;;;;;;;;;5066666;28;20478;-77
2021/10/10 01:20:57;;;;;;;4.57;3.10;;;;;;;;;;5064365;28;20052;-77
2021/10/10 01:23:24;;;;;;;4.85;3.35;;;;;;;;;;5075697;28;20071;-77
2021/10/10 01:25:50;;;;;;;4.90;3.22;;;;;;;;;;5066372;28;20060;-77
2021/10/10 01:28:17;;;;;;;5.25;3.45;;;;;;;;;;5067630;28;20079;-78
2021/10/10 01:30:44;;;;;;;5.57;3.08;;;;;;;;;;5060163;28;20068;-77
2021/10/10 01:33:11;;;;;;;5.53;3.42;;;;;;;;;;5072428;28;20052;-77
2021/10/10 01:35:38;;;;;;;4.15;3.05;;;;;;;;;;5063887;28;20059;-77
2021/10/10 01:38:05;;;;;;;5.97;3.47;;;;;;;;;;5066157;28;20033;-77
2021/10/10 01:40:33;;;;;;;5.70;3.22;;;;;;;;;;5063404;28;20116;-77
2021/10/10 01:42:59;;;;;;;4.78;3.17;;;;;;;;;;5065262;28;20485;-78
2021/10/10 01:45:26;;;;;;;3.83;3.10;;;;;;;;;;5061698;28;20568;-78
2021/10/10 01:47:52;;;;;;;5.38;3.60;;;;;;;;;;5062652;28;20095;-77
2021/10/10 01:50:19;;;;;;;5.45;3.40;;;;;;;;;;5060509;28;20052;-77
2021/10/10 01:52:51;;;;;;;4.45;3.33;;;;;;;;;;5070536;28;20060;-77
2021/10/10 01:55:18;;;;;;;5.07;3.38;;;;;;;;;;5070852;28;20032;-77
2021/10/10 01:57:45;;;;;;;5.47;3.65;;;;;;;;;;5063757;28;20109;-77
2021/10/10 02:00:12;;;;;;;4.75;3.17;;;;;;;;;;5060289;28;20102;-77
2021/10/10 02:02:39;;;;;;;5.13;3.40;;;;;;;;;;5064157;28;20061;-77
2021/10/10 02:05:06;;;;;;;5.45;3.35;;;;;;;;;;5063320;28;20214;-77
2021/10/10 02:07:32;;;;;;;5.22;3.33;;;;;;;;;;5070411;28;20172;-77
2021/10/10 02:09:59;;;;;;;4.50;3.47;;;;;;;;;;5067329;28;20075;-77
2021/10/10 02:12:25;;;;;;;6.40;3.35;;;;;;;;;;5056193;28;20456;-77
2021/10/10 02:14:52;;;;;;;4.78;3.30;;;;;;;;;;5065232;28;20060;-77
2021/10/10 02:17:19;;;;;;;4.68;2.95;;;;;;;;;;5066847;28;20056;-78
2021/10/10 02:19:45;;;;;;;5.05;3.28;;;;;;;;;;5070135;28;20110;-77
2021/10/10 02:22:12;;;;;;;4.00;3.00;;;;;;;;;;5067109;28;20048;-77
2021/10/10 02:24:38;;;;;;;4.60;3.17;;;;;;;;;;5070708;28;20102;-76
2021/10/10 02:27:04;;;;;;;4.10;3.10;;;;;;;;;;5076725;28;20078;-78
2021/10/10 02:29:38;;;;;;;4.25;3.42;;;;;;;;;;5063460;28;20064;-77
2021/10/10 02:32:05;;;;;;;5.05;3.38;;;;;;;;;;5070322;28;20511;-77
2021/10/10 02:34:31;;;;;;;5.68;3.58;;;;;;;;;;5068511;28;20082;-77
2021/10/10 02:36:58;;;;;;;4.68;3.08;;;;;;;;;;5071187;28;20060;-77
2021/10/10 02:39:24;;;;;;;4.40;3.00;;;;;;;;;;5079319;28;20656;-76
2021/10/10 02:41:51;;;;;;;4.97;3.05;;;;;;;;;;5069946;28;20033;-77
2021/10/10 02:44:18;;;;;;;3.83;3.05;;;;;;;;;;5070141;28;20063;-78
2021/10/10 02:46:44;;;;;;;4.55;2.90;;;;;;;;;;5067251;28;20063;-78
2021/10/10 02:49:11;;;;;;;4.78;3.00;;;;;;;;;;5070018;28;20122;-77
2021/10/10 02:51:37;;;;;;;4.70;3.28;;;;;;;;;;5069009;28;20106;-77
2021/10/10 02:54:03;;;;;;;5.43;3.40;;;;;;;;;;5069274;28;20040;-77
2021/10/10 02:56:30;;;;;;;5.88;3.40;;;;;;;;;;5065219;28;20068;-77
2021/10/10 02:58:56;;;;;;;5.15;3.10;;;;;;;;;;5068854;28;20071;-77
2021/10/10 03:01:23;;;;;;;5.40;3.20;;;;;;;;;;5068456;28;20052;-78
2021/10/10 03:03:49;;;;;;;5.20;2.97;;;;;;;;;;5068655;28;20048;-77
2021/10/10 03:06:15;;;;;;;4.60;2.97;;;;;;;;;;5068763;28;20166;-80
2021/10/10 03:08:42;;;;;;;6.47;3.58;;;;;;;;;;5056814;28;20076;-77
2021/10/10 03:11:08;;;;;;;5.28;3.30;;;;;;;;;;5062965;28;20489;-77
2021/10/10 03:13:35;;;;;;;4.35;3.00;;;;;;;;;;5058012;28;20550;-77
2021/10/10 03:16:04;;;;;;;4.78;3.20;;;;;;;;;;5072837;28;20068;-76
2021/10/10 03:18:30;;;;;;;5.13;3.20;;;;;;;;;;5069942;28;20163;-78
2021/10/10 03:20:57;;;;;;;6.50;3.33;;;;;;;;;;5067128;28;20172;-77
2021/10/10 03:23:23;;;;;;;4.50;3.08;;;;;;;;;;5065003;28;20151;-77
2021/10/10 03:25:50;;;;;;;5.97;3.10;;;;;;;;;;5069079;28;20052;-76
2021/10/10 03:28:16;;;;;;;4.70;2.92;;;;;;;;;;5059797;28;20064;-77
2021/10/10 03:30:42;;;;;;;3.85;2.78;;;;;;;;;;5064860;28;20047;-76
2021/10/10 03:33:09;;;;;;;5.32;3.55;;;;;;;;;;5063175;28;20051;-76
2021/10/10 03:35:35;;;;;;;4.88;3.65;;;;;;;;;;5069348;28;20040;-77
2021/10/10 03:38:02;;;;;;;6.72;3.08;;;;;;;;;;5075422;28;20854;-77
2021/10/10 03:40:29;;;;;;;4.13;3.30;;;;;;;;;;5062910;28;20074;-77
2021/10/10 03:42:55;;;;;;;4.53;3.47;;;;;;;;;;5067229;28;20064;-78
2021/10/10 03:45:22;;;;;;;5.00;3.30;;;;;;;;;;5068813;28;20056;-78
2021/10/10 03:47:48;;;;;;;5.70;3.42;;;;;;;;;;5070293;28;20057;-77
2021/10/10 03:50:14;;;;;;;4.30;3.10;;;;;;;;;;5065487;28;20091;-77
2021/10/10 03:52:42;;;;;;;5.20;3.17;;;;;;;;;;5068474;28;20446;-77
2021/10/10 03:57:38;;;;;;;4.93;3.13;;;;;;;;;;5069381;28;20067;-78
2021/10/10 04:00:08;;;;;;;5.00;2.85;;;;;;;;;;5067825;28;20074;-77
2021/10/10 04:02:35;;;;;;;5.15;3.42;;;;;;;;;;5065768;28;20125;-77
2021/10/10 04:05:03;;;;;;;4.72;3.42;;;;;;;;;;5068479;28;20045;-76
2021/10/10 04:07:30;;;;;;;5.80;3.20;;;;;;;;;;5069480;28;20028;-77
2021/10/10 04:09:56;;;;;;;5.05;3.10;;;;;;;;;;5069103;28;20059;-77
2021/10/10 04:12:22;;;;;;;4.03;3.13;;;;;;;;;;5070291;28;20086;-77
2021/10/10 04:14:49;;;;;;;7.25;3.50;;;;;;;;;;5068767;28;20373;-77
2021/10/10 04:17:15;;;;;;;4.68;3.15;;;;;;;;;;5068518;28;20064;-77
2021/10/10 04:19:42;;;;;;;4.45;3.05;;;;;;;;;;5067532;28;20064;-77
2021/10/10 04:22:08;;;;;;;4.32;2.97;;;;;;;;;;5076374;28;20291;-77
2021/10/10 04:24:34;;;;;;;4.05;2.85;;;;;;;;;;5068348;28;20083;-76
2021/10/10 04:27:01;;;;;;;4.53;3.22;;;;;;;;;;5074429;28;20063;-76
2021/10/10 04:29:27;;;;;;;4.38;3.20;;;;;;;;;;5069182;28;20064;-75
2021/10/10 04:31:54;;;;;;;4.13;2.78;;;;;;;;;;5050253;28;20064;-76
2021/10/10 04:34:20;;;;;;;4.15;3.17;;;;;;;;;;5066650;28;20061;-77
2021/10/10 04:36:46;;;;;;;5.43;3.20;;;;;;;;;;5069986;28;20064;-77
2021/10/10 04:39:13;;;;;;;4.90;3.17;;;;;;;;;;5069761;28;20040;-76
2021/10/10 04:41:39;;;;;;;5.15;3.33;;;;;;;;;;5067499;28;20060;-76
2021/10/10 04:44:11;;;;;;;5.22;3.20;;;;;;;;;;5068526;28;20626;-76
2021/10/10 04:46:37;;;;;;;4.88;3.50;;;;;;;;;;5065216;28;20076;-76
2021/10/10 04:49:04;;;;;;;5.70;3.33;;;;;;;;;;5072196;28;20076;-77
2021/10/10 04:51:30;;;;;;;4.40;3.15;;;;;;;;;;5065646;28;20067;-77
2021/10/10 04:53:57;;;;;;;3.50;2.95;;;;;;;;;;5066524;28;20083;-76
2021/10/10 04:56:23;;;;;;;4.43;2.88;;;;;;;;;;5068006;28;20707;-77
2021/10/10 04:58:50;;;;;;;4.20;3.20;;;;;;;;;;5067789;28;20112;-76
2021/10/10 05:01:16;;;;;;;6.43;3.65;;;;;;;;;;5069433;28;20052;-78
2021/10/10 05:03:42;;;;;;;4.55;3.40;;;;;;;;;;5067641;28;20052;-76
2021/10/10 05:06:09;;;;;;;4.82;2.97;;;;;;;;;;5070572;28;20064;-76
2021/10/10 05:08:35;;;;;;;4.45;3.45;;;;;;;;;;5063515;28;20064;-76
2021/10/10 05:11:02;;;;;;;4.72;3.45;;;;;;;;;;5068019;28;20141;-76
2021/10/10 05:13:28;;;;;;;5.22;3.10;;;;;;;;;;5065345;28;20048;-77
2021/10/10 05:15:55;;;;;;;4.22;3.03;;;;;;;;;;5059156;28;20064;-76
2021/10/10 05:18:21;;;;;;;4.45;3.10;;;;;;;;;;5067116;28;20074;-76
2021/10/10 05:20:47;;;;;;;5.18;3.53;;;;;;;;;;5067789;28;20036;-75
2021/10/10 05:23:15;;;;;;;4.20;2.75;;;;;;;;;;5068437;28;20079;-75
2021/10/10 05:25:42;;;;;;;4.47;3.17;;;;;;;;;;5060086;28;20048;-76
2021/10/10 05:28:09;;;;;;;6.05;3.08;;;;;;;;;;5066467;28;20064;-76
2021/10/10 05:30:35;;;;;;;5.72;3.05;;;;;;;;;;5065621;28;20504;-76
2021/10/10 05:33:01;;;;;;;4.55;3.30;;;;;;;;;;5068237;28;20067;-76
2021/10/10 05:35:28;;;;;;;5.07;3.05;;;;;;;;;;5068114;28;20511;-76
2021/10/10 05:37:54;;;;;;;4.50;3.10;;;;;;;;;;5064213;28;20173;-78
2021/10/10 05:40:21;;;;;;;4.28;3.30;;;;;;;;;;5070160;28;20048;-77
2021/10/10 05:42:47;;;;;;;4.22;2.88;;;;;;;;;;5064507;28;20048;-76
2021/10/10 05:45:13;;;;;;;4.88;3.47;;;;;;;;;;5067222;28;20053;-76
2021/10/10 05:47:40;;;;;;;4.53;3.40;;;;;;;;;;5066737;28;20064;-76
2021/10/10 05:50:06;;;;;;;5.03;3.40;;;;;;;;;;5068156;28;20417;-76
2021/10/10 05:52:33;;;;;;;4.18;2.85;;;;;;;;;;5067979;28;20061;-77
2021/10/10 05:55:00;;;;;;;4.45;2.92;;;;;;;;;;5065369;28;20148;-77
2021/10/10 05:57:42;;;;;;;4.13;2.70;;;;;;;;;;5062708;28;20063;-76
2021/10/10 06:00:09;;;;;;;4.50;3.05;;;;;;;;;;5073244;28;20032;-78
2021/10/10 06:02:36;;;;;;;4.75;2.97;;;;;;;;;;5073349;28;20036;-78
2021/10/10 06:05:03;;;;;;;4.32;2.63;;;;;;;;;;5074418;28;20093;-77
2021/10/10 06:07:29;;;;;;;3.92;2.90;;;;;;;;;;5072271;28;20432;-78
2021/10/10 06:09:56;;;;;;;4.68;3.13;;;;;;;;;;5071319;28;20076;-77
2021/10/10 06:12:22;;;;;;;4.05;2.90;;;;;;;;;;5067585;28;20067;-78
2021/10/10 06:14:51;;;;;;;4.47;3.10;;;;;;;;;;5068287;28;20110;-77
2021/10/10 06:17:20;;;;;;;5.28;3.30;;;;;;;;;;5078930;28;20102;-78
2021/10/10 06:19:47;;;;;;;4.13;2.97;;;;;;;;;;5066892;28;20124;-77
2021/10/10 06:22:13;;;;;;;4.68;3.22;;;;;;;;;;5071595;28;20055;-77
2021/10/10 06:24:39;;;;;;;5.25;3.08;;;;;;;;;;5066807;28;20515;-76
2021/10/10 06:27:06;;;;;;;3.70;2.78;;;;;;;;;;5067018;28;20112;-77
2021/10/10 06:29:32;;;;;;;4.50;2.70;;;;;;;;;;5065072;28;20543;-76
2021/10/10 06:31:59;;;;;;;3.58;2.40;;;;;;;;;;5071864;28;20064;-77
2021/10/10 06:34:25;;;;;;;4.35;2.75;;;;;;;;;;5066918;28;20048;-75
2021/10/10 06:36:52;;;;;;;4.20;2.40;;;;;;;;;;5071508;28;20064;-76
2021/10/10 06:39:18;;;;;;;3.80;2.75;;;;;;;;;;5074477;28;20045;-76
2021/10/10 06:41:50;;;;;;;3.92;2.80;;;;;;;;;;5067485;28;20056;-76
2021/10/10 06:44:17;;;;;;;3.92;2.72;;;;;;;;;;5061658;28;20028;-78
2021/10/10 06:46:44;;;;;;;9.90;5.97;;;;;;;;;;5073428;28;20033;-76
2021/10/10 06:49:12;;;;;;;9.95;6.50;;;;;;;;;;5067610;28;20550;-78
2021/10/10 06:51:38;;;;;;;9.82;5.97;;;;;;;;;;5054063;28;20491;-77
2021/10/10 06:54:05;;;;;;;10.43;6.32;;;;;;;;;;5070007;28;20560;-78
2021/10/10 06:56:31;;;;;;;10.63;6.28;;;;;;;;;;5064358;28;20495;-78
2021/10/10 06:58:58;;;;;;;9.45;4.82;;;;;;;;;;5065104;28;20068;-76
2021/10/10 07:01:24;;;;;;;6.32;4.15;;;;;;;;;;5063623;28;20060;-76
2021/10/10 07:03:52;;;;;;;5.20;3.70;;;;;;;;;;5072698;28;20055;-76
2021/10/10 07:06:19;;;;;;;3.88;2.53;;;;;;;;;;5072592;28;20164;-75
2021/10/10 07:08:45;;;;;;;5.57;3.95;;;;;;;;;;5068299;28;20414;-76
2021/10/10 07:11:11;;;;;;;4.75;3.10;;;;;;;;;;5072017;28;20134;-77
2021/10/10 07:13:38;;;;;;;4.25;2.55;;;;;;;;;;5064200;28;20056;-76
2021/10/10 07:16:04;;;;;;;5.57;3.35;;;;;;;;;;5071120;28;20060;-78
2021/10/10 07:26:21;;;;;;;5.95;3.45;;;;;;;;;;5067853;28;20499;-77
2021/10/10 07:28:48;;;;;;;8.43;3.72;;;;;;;;;;5066876;28;20056;-77
2021/10/10 07:31:14;;;;;;;6.38;3.08;;;;;;;;;;5070334;28;20527;-78
2021/10/10 07:33:40;;;;;;;7.85;3.35;;;;;;;;;;5078665;28;20059;-75
2021/10/10 07:36:07;;;;;;;8.18;3.60;;;;;;;;;;5067756;28;20553;-77
2021/10/10 07:38:34;;;;;;;5.20;3.15;;;;;;;;;;5066902;28;20033;-78
2021/10/10 07:41:00;;;;;;;6.63;3.40;;;;;;;;;;5068152;28;20545;-78
2021/10/10 07:43:28;;;;;;;6.93;3.20;;;;;;;;;;5070946;28;20064;-78
2021/10/10 07:45:54;;;;;;;6.22;3.20;;;;;;;;;;5074819;28;20064;-78
2021/10/10 07:48:21;;;;;;;4.25;2.85;;;;;;;;;;5068739;28;20067;-78
2021/10/10 07:50:47;;;;;;;6.10;3.50;;;;;;;;;;5072138;28;20070;-78
2021/10/10 07:53:14;;;;;;;7.10;2.83;;;;;;;;;;5071256;28;20037;-78
2021/10/10 07:55:41;;;;;;;4.85;3.33;;;;;;;;;;5070770;28;20101;-78
2021/10/10 07:58:07;;;;;;;6.45;3.30;;;;;;;;;;5067541;28;20127;-77
2021/10/10 08:00:34;;;;;;;5.45;3.05;;;;;;;;;;5069171;28;20077;-77
2021/10/10 08:03:02;;;;;;;6.05;3.80;;;;;;;;;;5068593;28;20064;-77
2021/10/10 08:05:30;;;;;;;4.65;3.45;;;;;;;;;;5062419;28;20530;-77
2021/10/10 08:07:56;;;;;;;6.72;3.33;;;;;;;;;;5069098;28;20036;-80
2021/10/10 08:10:23;;;;;;;5.75;3.03;;;;;;;;;;5068822;28;20052;-77
2021/10/10 08:12:49;;;;;;;5.32;2.92;;;;;;;;;;5069163;28;20047;-78
2021/10/10 08:15:16;;;;;;;9.15;3.22;;;;;;;;;;5060677;28;20165;-77
2021/10/10 08:17:43;;;;;;;5.05;3.15;;;;;;;;;;5070238;28;22325;-77
2021/10/10 08:20:10;;;;;;;5.50;3.35;;;;;;;;;;5072645;28;20495;-77
2021/10/10 08:22:37;;;;;;;4.68;3.00;;;;;;;;;;5066731;28;20125;-77
2021/10/10 08:25:08;;;;;;;4.63;3.10;;;;;;;;;;5065527;28;20060;-77
2021/10/10 08:27:35;;;;;;;5.33;2.90;;;;;;;;;;5067211;28;20045;-77
2021/10/10 08:30:02;;;;;;;7.47;3.20;;;;;;;;;;5069955;28;20063;-77
2021/10/10 08:32:29;;;;;;;6.03;3.20;;;;;;;;;;5067854;28;20052;-78
2021/10/10 08:34:55;;;;;;;5.20;3.50;;;;;;;;;;5070373;28;20048;-78
2021/10/10 08:37:21;;;;;;;5.00;3.17;;;;;;;;;;5066816;28;20060;-78
2021/10/10 08:39:48;;;;;;;4.07;2.75;;;;;;;;;;5066980;28;20420;-77
2021/10/10 08:42:17;;;;;;;6.13;3.35;;;;;;;;;;5068035;28;20492;-77
2021/10/10 08:44:47;;;;;;;4.40;2.85;;;;;;;;;;5069193;28;20040;-78
2021/10/10 08:47:15;;;;;;;4.72;3.10;;;;;;;;;;5069822;28;20035;-78
2021/10/10 08:49:42;;;;;;;4.45;3.08;;;;;;;;;;5069727;28;20492;-78
2021/10/10 08:52:10;;;;;;;8.88;3.53;;;;;;;;;;5067410;28;20056;-77
2021/10/10 08:54:36;;;;;;;8.10;3.10;;;;;;;;;;5065974;28;20036;-77
2021/10/10 08:57:03;;;;;;;5.63;3.30;;;;;;;;;;5060176;28;20086;-77
2021/10/10 08:59:31;;;;;;;5.15;3.40;;;;;;;;;;5070694;28;20089;-77
2021/10/10 09:01:58;;;;;;;6.80;3.40;;;;;;;;;;5058564;28;20118;-77
2021/10/10 09:04:24;;;;;;;5.03;3.35;;;;;;;;;;5061196;28;20110;-77
2021/10/10 09:06:52;;;;;;;6.03;3.45;;;;;;;;;;5065375;28;20044;-77
2021/10/10 09:09:31;;;;;;;4.72;2.90;;;;;;;;;;5058220;28;20065;-78
2021/10/10 09:12:08;;;;;;;5.50;3.60;;;;;;;;;;5065155;28;20409;-77
2021/10/10 09:14:48;;;;;;;4.78;3.08;;;;;;;;;;5042809;28;20625;-77
2021/10/10 09:17:32;;;;;;;5.05;3.40;;;;;;;;;;5063457;28;20063;-78
2021/10/10 09:19:59;;;;;;;6.15;3.58;;;;;;;;;;5060671;28;20352;-77
2021/10/10 09:22:26;;;;;;;4.63;2.83;;;;;;;;;;5063970;28;20098;-77
2021/10/10 09:24:57;;;;;;;4.97;3.13;;;;;;;;;;5068138;28;20060;-77
2021/10/10 09:27:26;;;;;;;6.05;3.72;;;;;;;;;;5067844;28;20082;-78
2021/10/10 09:29:54;;;;;;;3.92;3.03;;;;;;;;;;5065911;28;20060;-78
2021/10/10 09:32:27;;;;;;;4.05;3.10;;;;;;;;;;5059499;28;20032;-79
2021/10/10 09:34:54;;;;;;;5.15;3.20;;;;;;;;;;5054936;28;20044;-78
2021/10/10 09:40:39;;;;;;;5.32;3.22;;;;;;;;;;5067273;28;20060;-77
2021/10/10 09:42:43;;;;;;;4.97;3.47;;;;;;;;;;5059768;28;20060;-77
2021/10/10 09:45:28;;;;;;;4.57;3.03;;;;;;;;;;5061853;28;20066;-78
2021/10/10 09:47:57;;;;;;;4.80;3.40;;;;;;;;;;5061136;28;20056;-77
2021/10/10 09:50:25;;;;;;;5.18;3.17;;;;;;;;;;5061696;28;20098;-76
2021/10/10 09:53:08;;;;;;;3.88;3.00;;;;;;;;;;5072319;28;20024;-78
2021/10/10 09:55:35;;;;;;;3.95;3.28;;;;;;;;;;5068285;28;20032;-77
2021/10/10 09:58:02;;;;;;;5.15;3.00;;;;;;;;;;5066771;28;20087;-77
2021/10/10 10:00:29;;;;;;;5.22;3.47;;;;;;;;;;5065315;28;20106;-77
2021/10/10 10:03:06;;;;;;;4.80;2.97;;;;;;;;;;5064048;28;20311;-77
2021/10/10 10:05:33;;;;;;;5.15;3.28;;;;;;;;;;5065567;28;20144;-77
2021/10/10 10:08:00;;;;;;;5.93;3.28;;;;;;;;;;5069142;28;20036;-76
2021/10/10 10:10:27;;;;;;;4.22;3.08;;;;;;;;;;5059539;28;20130;-78
2021/10/10 10:12:54;;;;;;;6.07;3.25;;;;;;;;;;5067747;28;20056;-77
2021/10/10 10:15:26;;;;;;;4.10;3.03;;;;;;;;;;5070427;28;20157;-78
2021/10/10 10:17:53;;;;;;;4.22;3.13;;;;;;;;;;5061954;28;20052;-76
2021/10/10 10:20:20;;;;;;;4.80;3.05;;;;;;;;;;5065517;28;21136;-79
2021/10/10 10:22:50;;;;;;;6.00;3.50;;;;;;;;;;5065538;28;20049;-77
2021/10/10 10:25:16;;;;;;;4.60;3.35;;;;;;;;;;5067538;28;20474;-78
2021/10/10 10:27:43;;;;;;;4.60;3.20;;;;;;;;;;5058848;28;20053;-77
2021/10/10 10:30:09;;;;;;;5.40;3.40;;;;;;;;;;5068377;28;20063;-77
2021/10/10 10:32:36;;;;;;;4.97;3.42;;;;;;;;;;5066007;28;20072;-77
2021/10/10 10:35:13;;;;;;;4.60;3.10;;;;;;;;;;5059195;28;20064;-78
2021/10/10 10:37:42;;;;;;;4.95;3.10;;;;;;;;;;5065508;28;20063;-77
2021/10/10 10:40:14;;;;;;;4.97;3.25;;;;;;;;;;5064768;28;20061;-77
2021/10/10 10:42:42;;;;;;;5.20;3.13;;;;;;;;;;5066757;28;20028;-78
2021/10/10 10:45:20;;;;;;;4.47;3.25;;;;;;;;;;5064391;28;20032;-78
2021/10/10 10:47:48;;;;;;;5.18;3.50;;;;;;;;;;5070556;28;21257;-78
2021/10/10 10:50:37;;;;;;;5.13;3.10;;;;;;;;;;5069454;28;20452;-77
2021/10/10 10:53:05;;;;;;;5.68;3.38;;;;;;;;;;5081767;28;21362;-77
2021/10/10 10:55:32;;;;;;;3.65;3.20;;;;;;;;;;5069008;28;20098;-78
2021/10/10 10:57:59;;;;;;;4.78;2.83;;;;;;;;;;5066698;28;20057;-77
2021/10/10 11:00:30;;;;;;;4.13;3.00;;;;;;;;;;5064431;28;20461;-78
2021/10/10 11:02:59;;;;;;;5.78;3.33;;;;;;;;;;5062532;28;20515;-78
2021/10/10 11:05:31;;;;;;;4.90;3.17;;;;;;;;;;5064004;28;20072;-78
2021/10/10 11:08:01;;;;;;;3.72;2.95;;;;;;;;;;5070094;28;20059;-76
2021/10/10 11:10:31;;;;;;;5.10;3.08;;;;;;;;;;5053053;28;20065;-79
2021/10/10 11:13:08;;;;;;;4.05;3.13;;;;;;;;;;5051915;28;20052;-77
2021/10/10 11:15:53;;;;;;;3.95;3.00;;;;;;;;;;5062977;28;20101;-79
2021/10/10 11:18:20;;;;;;;4.55;2.97;;;;;;;;;;5061378;28;20535;-78
2021/10/10 11:20:55;;;;;;;4.13;2.75;;;;;;;;;;5056747;28;20503;-78
2021/10/10 11:23:22;;;;;;;5.10;3.08;;;;;;;;;;5064205;28;20555;-77
2021/10/10 11:25:49;;;;;;;3.67;2.83;;;;;;;;;;5066331;28;20052;-77
2021/10/10 11:28:17;;;;;;;4.07;3.05;;;;;;;;;;5065837;28;20057;-78
2021/10/10 11:30:43;;;;;;;4.57;3.17;;;;;;;;;;5074418;28;20398;-77
2021/10/10 11:33:10;;;;;;;4.68;3.25;;;;;;;;;;5061848;28;20037;-77
2021/10/10 11:35:40;;;;;;;5.10;3.40;;;;;;;;;;5064043;28;20121;-76
2021/10/10 11:38:09;;;;;;;4.35;2.88;;;;;;;;;;5064687;28;20032;-76
2021/10/10 11:40:36;;;;;;;4.55;3.00;;;;;;;;;;5065893;28;20067;-77
2021/10/10 11:43:02;;;;;;;3.85;3.00;;;;;;;;;;5067566;28;20056;-78
2021/10/10 11:45:29;;;;;;;3.85;3.00;;;;;;;;;;5067005;28;20083;-77
2021/10/10 11:47:56;;;;;;;4.00;2.78;;;;;;;;;;5072846;28;20048;-78
2021/10/10 11:50:22;;;;;;;4.07;3.00;;;;;;;;;;5077539;28;20059;-79
2021/10/10 11:52:58;;;;;;;3.70;2.53;;;;;;;;;;5069974;28;20851;-78
2021/10/10 11:55:34;;;;;;;4.95;3.03;;;;;;;;;;5068871;28;20055;-78
2021/10/10 11:58:01;;;;;;;4.50;2.80;;;;;;;;;;5062161;28;20086;-78
2021/10/10 12:00:30;;;;;;;5.07;2.90;;;;;;;;;;5064320;28;20382;-78
2021/10/10 12:03:04;;;;;;;4.00;2.97;;;;;;;;;;5072500;28;20506;-78
2021/10/10 12:05:38;;;;;;;4.55;3.08;;;;;;;;;;5074874;28;20033;-78
2021/10/10 12:08:15;;;;;;;4.40;3.15;;;;;;;;;;5070313;28;20582;-78
2021/10/10 12:10:42;;;;;;;5.32;3.25;;;;;;;;;;5064440;28;20080;-77
2021/10/10 12:13:09;;;;;;;4.70;2.92;;;;;;;;;;5060063;28;20045;-77
2021/10/10 12:15:35;;;;;;;4.18;2.90;;;;;;;;;;5068460;28;20056;-77
2021/10/10 12:18:09;;;;;;;4.93;3.15;;;;;;;;;;5071394;28;20037;-77
2021/10/10 12:20:36;;;;;;;4.65;3.08;;;;;;;;;;5066425;28;20067;-78
2021/10/10 12:23:05;;;;;;;3.75;2.88;;;;;;;;;;5061577;28;20476;-77
2021/10/10 12:25:31;;;;;;;4.63;2.88;;;;;;;;;;5062901;28;20032;-76
2021/10/10 12:28:01;;;;;;;4.13;2.85;;;;;;;;;;5070154;28;20043;-77
2021/10/10 12:30:29;;;;;;;4.20;2.90;;;;;;;;;;5067226;28;20080;-77
2021/10/10 12:32:56;;;;;;;4.30;2.95;;;;;;;;;;5066834;28;20064;-78
2021/10/10 12:35:24;;;;;;;3.80;3.00;;;;;;;;;;5062533;28;20072;-78
2021/10/10 12:37:54;;;;;;;3.95;2.67;;;;;;;;;;5070345;28;20064;-77
2021/10/10 12:40:24;;;;;;;4.88;2.90;;;;;;;;;;5068243;28;21291;-78
2021/10/10 12:42:51;;;;;;;4.30;3.05;;;;;;;;;;5069213;28;20123;-78
2021/10/10 12:45:37;;;;;;;4.25;3.00;;;;;;;;;;5068928;28;20114;-77
2021/10/10 12:48:03;;;;;;;4.78;3.03;;;;;;;;;;5069614;28;21364;-76
2021/10/10 12:50:30;;;;;;;4.30;2.90;;;;;;;;;;5065077;28;20110;-76
2021/10/10 12:52:57;;;;;;;5.03;2.88;;;;;;;;;;5071361;28;20037;-76
2021/10/10 12:55:26;;;;;;;3.65;2.65;;;;;;;;;;5066618;28;20479;-76
2021/10/10 12:57:53;;;;;;;4.05;2.80;;;;;;;;;;5063813;28;20672;-77
2021/10/10 13:00:20;;;;;;;4.50;3.15;;;;;;;;;;5067905;28;20569;-77
2021/10/10 13:02:48;;;;;;;5.28;2.97;;;;;;;;;;5069803;28;20059;-77
2021/10/10 13:05:15;;;;;;;4.13;2.92;;;;;;;;;;5072248;28;20902;-77
2021/10/10 13:07:42;;;;;;;3.55;2.75;;;;;;;;;;5065032;28;20056;-77
2021/10/10 13:10:08;;;;;;;5.18;3.13;;;;;;;;;;5057642;28;20057;-78
2021/10/10 13:12:35;;;;;;;4.15;3.05;;;;;;;;;;5071469;28;20110;-76
2021/10/10 13:15:01;;;;;;;3.95;3.00;;;;;;;;;;5074828;28;20102;-76
2021/10/10 13:17:27;;;;;;;4.15;2.78;;;;;;;;;;5069558;28;20070;-76
2021/10/10 13:19:54;;;;;;;3.67;2.72;;;;;;;;;;5067575;28;20060;-77
2021/10/10 13:22:20;;;;;;;3.85;2.85;;;;;;;;;;5069031;28;20063;-77
2021/10/10 13:24:51;;;;;;;4.35;3.05;;;;;;;;;;5065177;28;20578;-77
2021/10/10 13:27:18;;;;;;;4.50;2.90;;;;;;;;;;5063139;28;20114;-79
2021/10/10 13:29:45;;;;;;;4.60;2.90;;;;;;;;;;5059756;28;20118;-79
2021/10/10 13:32:11;;;;;;;3.80;2.80;;;;;;;;;;5068333;28;20437;-79
2021/10/10 13:34:38;;;;;;;4.18;2.88;;;;;;;;;;5077746;28;20498;-78
2021/10/10 13:37:04;;;;;;;3.88;2.83;;;;;;;;;;5071917;28;20170;-79
2021/10/10 13:39:30;;;;;;;3.70;2.80;;;;;;;;;;5064253;28;20052;-79
2021/10/10 13:41:57;;;;;;;4.30;2.90;;;;;;;;;;5069695;28;20086;-79
2021/10/10 13:44:23;;;;;;;4.82;3.13;;;;;;;;;;5062867;28;20056;-79
2021/10/10 13:46:50;;;;;;;4.35;3.03;;;;;;;;;;5068999;28;20063;-78
2021/10/10 13:49:16;;;;;;;5.57;2.83;;;;;;;;;;5071977;28;20072;-80
2021/10/10 13:51:42;;;;;;;4.07;3.10;;;;;;;;;;5069536;28;20097;-80
2021/10/10 13:54:09;;;;;;;3.72;2.60;;;;;;;;;;5074501;28;20040;-80
2021/10/10 13:56:35;;;;;;;4.00;3.10;;;;;;;;;;5064333;28;20484;-80
2021/10/10 13:59:02;;;;;;;4.53;2.90;;;;;;;;;;5083611;28;20040;-79
2021/10/10 14:01:29;;;;;;;4.43;2.90;;;;;;;;;;5086524;28;20036;-79
2021/10/10 14:03:55;;;;;;;3.47;2.83;;;;;;;;;;5084074;28;20033;-79
2021/10/10 14:06:21;;;;;;;5.35;3.03;;;;;;;;;;5088156;28;20021;-78
2021/10/10 14:08:48;;;;;;;5.15;2.90;;;;;;;;;;5089401;28;20037;-80
2021/10/10 14:11:14;;;;;;;3.95;2.90;;;;;;;;;;5087816;28;20041;-80
2021/10/10 14:13:41;;;;;;;4.53;2.80;;;;;;;;;;5080745;28;20029;-80
2021/10/10 14:16:07;;;;;;;4.20;3.08;;;;;;;;;;5085718;28;20036;-80
2021/10/10 14:18:33;;;;;;;4.60;3.25;;;;;;;;;;5077680;28;20040;-79
2021/10/10 14:21:00;;;;;;;5.85;3.15;;;;;;;;;;5077553;28;20035;-81
2021/10/10 14:23:26;;;;;;;4.38;2.83;;;;;;;;;;5078175;28;20060;-80
2021/10/10 14:25:53;;;;;;;4.32;3.13;;;;;;;;;;5084299;28;20032;-80
2021/10/10 14:28:19;;;;;;;4.25;2.80;;;;;;;;;;5081655;28;20519;-78
2021/10/10 14:30:46;;;;;;;4.75;2.58;;;;;;;;;;5086833;28;20041;-79
2021/10/10 14:33:14;;;;;;;5.18;3.20;;;;;;;;;;5084759;28;20043;-78
2021/10/10 14:35:41;;;;;;;5.00;3.10;;;;;;;;;;5077765;28;20054;-77
2021/10/10 14:38:07;;;;;;;4.68;3.45;;;;;;;;;;5072790;28;20040;-76
2021/10/10 14:40:38;;;;;;;4.47;3.33;;;;;;;;;;5078855;28;20024;-77
2021/10/10 14:43:06;;;;;;;5.97;3.03;;;;;;;;;;5083922;28;20059;-77
2021/10/10 14:45:35;;;;;;;5.20;3.17;;;;;;;;;;5078298;28;20062;-77
2021/10/10 14:48:08;;;;;;;7.78;3.25;;;;;;;;;;5081884;28;20082;-77
2021/10/10 14:50:36;;;;;;;5.38;2.80;;;;;;;;;;5076715;28;20292;-77
2021/10/10 14:53:02;;;;;;;4.30;2.97;;;;;;;;;;5078945;28;20064;-78
2021/10/10 14:55:29;;;;;;;5.85;3.22;;;;;;;;;;5075697;28;20042;-78
2021/10/10 14:57:57;;;;;;;3.53;2.70;;;;;;;;;;5079805;28;20032;-77